Time;durP1;ratioP1;P1;durP2;ratioP2;P2;SDS_P1;SDS_P2;PMS_P1;PMS_P2;Temp;Humidity;BMP_temperature;BMP_pressure;BME280_temperature;BME280_humidity;BME280_pressure;Samples;Min_cycle;Max_cycle;Signal;HPM_P1;HPM_P2
2023/06/09 00:01:35;;;;;;;6.13;4.22;;;;;;;20.71;55.65;99884.56;10314820;28;20061;-58
2023/06/09 00:06:37;;;;;;;5.35;4.30;;;;;;;20.70;55.60;99887.47;10314849;28;20057;-58
2023/06/09 00:11:39;;;;;;;4.53;4.13;;;;;;;20.65;55.56;99894.31;10306986;28;20058;-58
2023/06/09 00:16:45;;;;;;;4.05;3.72;;;;;;;20.61;55.56;99892.16;10310695;28;20070;-58
2023/06/09 00:21:50;;;;;;;4.40;4.10;;;;;;;20.58;55.60;99892.56;10306792;28;20052;-58
2023/06/09 00:26:52;;;;;;;4.25;3.85;;;;;;;20.49;56.05;99892.72;10295949;28;20057;-58
2023/06/09 00:31:54;;;;;;;5.32;4.82;;;;;;;20.46;56.14;99894.97;10304097;28;20841;-58
2023/06/09 00:36:56;;;;;;;4.18;3.80;;;;;;;20.42;56.16;99889.13;10307927;28;20055;-58
2023/06/09 00:41:57;;;;;;;5.28;4.00;;;;;;;20.37;55.81;99891.59;10306453;28;20076;-58
2023/06/09 00:46:59;;;;;;;5.82;4.75;;;;;;;20.34;56.27;99897.38;10298808;28;20046;-57
2023/06/09 00:52:02;;;;;;;6.15;4.57;;;;;;;20.30;56.42;99898.81;10313518;28;20068;-58
2023/06/09 00:57:08;;;;;;;4.97;4.57;;;;;;;20.26;57.11;99900.25;10298479;28;20871;-58
2023/06/09 01:02:12;;;;;;;7.05;4.63;;;;;;;20.20;57.53;99895.63;10314289;28;20057;-58
2023/06/09 01:07:40;;;;;;;4.32;4.00;;;;;;;20.19;57.87;99910.16;10317443;28;20062;-58
2023/06/09 01:12:58;;;;;;;5.28;4.78;;;;;;;20.13;58.04;99901.81;10296115;28;20781;-60
2023/06/09 01:18:04;;;;;;;4.72;4.10;;;;;;;20.02;58.56;99906.91;10290808;28;20182;-56
2023/06/09 01:23:15;;;;;;;4.72;4.32;;;;;;;19.91;59.15;99903.69;10281216;28;20621;-57
2023/06/09 01:28:20;;;;;;;5.65;4.68;;;;;;;19.94;59.44;99892.47;10309329;28;20539;-57
2023/06/09 01:33:23;;;;;;;5.25;4.75;;;;;;;19.86;60.26;99895.34;10310916;28;20611;-57
2023/06/09 01:38:25;;;;;;;;;;;;;;;19.69;60.95;99905.50;10309134;28;20769;-57
2023/06/09 01:43:27;;;;;;;7.28;5.55;;;;;;;19.58;60.66;99893.34;10312948;28;20435;-57
2023/06/09 01:48:46;;;;;;;5.68;5.18;;;;;;;19.56;61.93;99895.41;10308367;28;20053;-58
2023/06/09 01:53:58;;;;;;;5.88;5.28;;;;;;;19.56;61.83;99892.72;10308329;28;20058;-62
2023/06/09 01:59:08;;;;;;;5.70;5.20;;;;;;;19.56;62.13;99900.81;10291561;28;20607;-58
2023/06/09 02:04:11;;;;;;;5.10;4.65;;;;;;;19.52;62.02;99888.72;10295853;28;20126;-58
2023/06/09 02:09:14;;;;;;;5.10;4.60;;;;;;;19.46;62.37;99888.66;10310063;28;20057;-58
2023/06/09 02:14:15;;;;;;;5.88;4.78;;;;;;;19.41;62.28;99886.50;10306421;28;20072;-57
2023/06/09 02:19:18;;;;;;;5.32;4.70;;;;;;;19.41;62.33;99887.34;10311472;28;20057;-57
2023/06/09 02:24:20;;;;;;;5.25;4.85;;;;;;;19.39;62.26;99888.56;10297916;28;20045;-58
2023/06/09 02:29:25;;;;;;;6.05;5.55;;;;;;;19.28;62.68;99879.09;10309461;28;20046;-56
2023/06/09 02:34:27;;;;;;;5.35;4.85;;;;;;;19.25;62.31;99871.38;10292967;28;20050;-57
2023/06/09 02:39:28;;;;;;;5.72;5.03;;;;;;;19.20;63.54;99874.66;10305487;28;20050;-57
2023/06/09 02:44:36;;;;;;;5.63;5.13;;;;;;;19.19;63.55;99881.06;10291656;28;20050;-58
2023/06/09 02:49:38;;;;;;;5.85;4.82;;;;;;;19.13;63.19;99870.22;10293737;28;20526;-58
2023/06/09 02:54:40;;;;;;;5.00;4.50;;;;;;;19.18;63.11;99875.84;10307970;28;20057;-58
2023/06/09 02:59:41;;;;;;;5.80;5.32;;;;;;;19.14;63.27;99883.50;10294369;28;20426;-58
2023/06/09 03:04:43;;;;;;;5.55;4.70;;;;;;;19.13;63.13;99881.00;10314048;28;20080;-58
2023/06/09 03:09:44;;;;;;;5.15;4.75;;;;;;;19.11;63.29;99888.41;10313624;28;20049;-58
2023/06/09 03:14:46;;;;;;;5.45;4.75;;;;;;;19.11;63.04;99896.50;10301296;28;20100;-58
2023/06/09 03:19:47;;;;;;;5.35;4.78;;;;;;;19.00;63.05;99882.47;10314189;28;20053;-58
2023/06/09 03:24:49;;;;;;;5.35;4.85;;;;;;;19.04;63.41;99881.09;10317305;28;20046;-58
2023/06/09 03:29:51;;;;;;;5.00;4.57;;;;;;;19.06;63.35;99900.59;10293787;28;20397;-60
2023/06/09 03:34:52;;;;;;;5.72;5.20;;;;;;;19.04;63.43;99899.97;10301261;28;20053;-58
2023/06/09 03:39:54;;;;;;;4.88;4.53;;;;;;;19.03;63.50;99898.28;10316780;28;20729;-58
2023/06/09 03:44:58;;;;;;;5.00;4.57;;;;;;;19.02;63.25;99907.41;10313313;28;20054;-58
2023/06/09 03:50:00;;;;;;;5.10;4.70;;;;;;;19.00;63.56;99900.53;10299367;28;20255;-58
2023/06/09 03:55:02;;;;;;;7.90;5.05;;;;;;;19.01;63.41;99903.03;10311190;28;20062;-58
2023/06/09 04:00:04;;;;;;;6.35;5.78;;;;;;;19.02;63.56;99907.41;10312271;28;20093;-57
2023/06/09 04:05:07;;;;;;;5.50;4.60;;;;;;;19.04;63.61;99918.03;10305353;28;20065;-57
2023/06/09 04:10:08;;;;;;;5.70;5.18;;;;;;;19.05;63.70;99915.13;10310189;28;20065;-57
2023/06/09 04:15:10;;;;;;;5.45;4.97;;;;;;;19.09;63.57;99920.97;10299419;28;20054;-58
2023/06/09 04:20:12;;;;;;;6.00;5.07;;;;;;;19.07;63.62;99923.88;10299281;28;20062;-57
2023/06/09 04:25:14;;;;;;;5.80;5.30;;;;;;;19.04;64.01;99921.53;10297233;28;20226;-57
2023/06/09 04:30:15;;;;;;;6.65;5.38;;;;;;;19.05;63.86;99933.16;10309338;28;20067;-57
2023/06/09 04:35:17;;;;;;;4.85;4.25;;;;;;;19.11;63.28;99931.59;10294250;28;20131;-56
2023/06/09 04:40:22;;;;;;;6.18;5.68;;;;;;;19.05;63.51;99925.06;10311451;28;20058;-57
2023/06/09 04:45:28;;;;;;;6.30;4.75;;;;;;;19.16;62.90;99937.28;10307655;28;20057;-57
2023/06/09 04:50:32;;;;;;;5.50;5.00;;;;;;;19.18;63.10;99940.59;10310799;28;20108;-56
2023/06/09 04:55:35;;;;;;;5.18;4.78;;;;;;;19.19;63.26;99936.91;10309614;28;20053;-57
2023/06/09 05:00:37;;;;;;;5.80;5.30;;;;;;;19.23;63.04;99944.44;10295089;28;20132;-58
2023/06/09 05:05:42;;;;;;;6.65;5.20;;;;;;;19.24;62.97;99943.38;10307852;28;20094;-57
2023/06/09 05:10:44;;;;;;;5.00;4.60;;;;;;;19.28;62.44;99943.84;10309285;28;20049;-57
2023/06/09 05:15:45;;;;;;;5.60;5.10;;;;;;;19.38;63.00;99948.94;10305437;28;20051;-59
2023/06/09 05:20:47;;;;;;;4.82;4.32;;;;;;;19.46;62.46;99937.22;10299151;28;20074;-57
2023/06/09 05:25:49;;;;;;;5.28;4.80;;;;;;;19.54;62.42;99935.22;10310726;28;20497;-57
2023/06/09 05:30:51;;;;;;;4.90;4.50;;;;;;;19.63;62.03;99927.88;10310597;28;20265;-57
2023/06/09 05:35:52;;;;;;;5.57;5.07;;;;;;;19.72;61.76;99934.00;10296961;28;20058;-57
2023/06/09 05:40:54;;;;;;;5.22;4.72;;;;;;;19.80;62.13;99943.84;10274173;28;20372;-57
2023/06/09 05:45:59;;;;;;;5.72;4.90;;;;;;;19.85;61.37;99942.25;10303560;28;20084;-57
2023/06/09 05:51:00;;;;;;;5.03;4.63;;;;;;;19.99;61.33;99948.63;10303903;28;20048;-58
2023/06/09 05:56:02;;;;;;;4.93;4.53;;;;;;;20.04;60.82;99939.94;10312524;28;20108;-58
2023/06/09 06:01:04;;;;;;;5.95;4.43;;;;;;;20.14;60.59;99946.69;10310465;28;21295;-58
2023/06/09 06:06:05;;;;;;;5.28;4.13;;;;;;;20.15;59.12;99947.56;10296444;28;20139;-58
2023/06/09 06:11:07;;;;;;;5.70;5.20;;;;;;;20.25;58.69;99952.59;10298386;28;20064;-57
2023/06/09 06:16:09;;;;;;;4.47;4.07;;;;;;;20.39;58.89;99959.81;10298434;28;20768;-58
2023/06/09 06:21:11;;;;;;;4.38;4.05;;;;;;;20.52;58.73;99956.38;10295306;28;20513;-59
2023/06/09 06:26:13;;;;;;;4.55;4.15;;;;;;;20.62;58.55;99959.56;10301804;28;20066;-58
2023/06/09 06:31:16;;;;;;;5.40;4.90;;;;;;;20.75;58.12;99960.75;10294344;28;20045;-58
2023/06/09 06:36:21;;;;;;;5.38;4.63;;;;;;;20.91;57.47;99965.84;10297179;28;20053;-58
2023/06/09 06:41:22;;;;;;;20.50;5.70;;;;;;;21.08;57.13;99968.25;10283631;28;20449;-58
2023/06/09 06:46:24;;;;;;;4.72;4.32;;;;;;;21.15;56.83;99969.09;10299962;28;20811;-57
2023/06/09 06:51:26;;;;;;;4.10;3.80;;;;;;;21.34;56.56;99970.25;10281827;28;20550;-58
2023/06/09 06:56:27;;;;;;;5.15;4.60;;;;;;;21.47;56.20;99967.59;10294895;28;20165;-58
2023/06/09 07:01:32;;;;;;;4.93;4.40;;;;;;;21.63;55.78;99960.19;10295160;28;20166;-58
2023/06/09 07:06:34;;;;;;;4.55;4.10;;;;;;;21.81;55.35;99971.31;10294118;28;20062;-57
2023/06/09 07:11:36;;;;;;;5.47;4.35;;;;;;;22.00;54.22;99974.25;10282107;28;20122;-57
2023/06/09 07:16:38;;;;;;;5.88;4.13;;;;;;;22.11;53.71;99973.63;10291661;28;20140;-57
2023/06/09 07:21:39;;;;;;;5.40;4.30;;;;;;;22.28;52.99;99984.09;10298839;28;20092;-58
2023/06/09 07:26:41;;;;;;;5.85;4.18;;;;;;;22.45;52.59;99974.53;10294585;28;20168;-57
2023/06/09 07:31:43;;;;;;;5.85;4.45;;;;;;;22.62;52.43;99984.97;10277829;28;20114;-58
2023/06/09 07:36:50;;;;;;;4.45;3.88;;;;;;;22.76;51.28;99987.47;10287484;28;20054;-55
2023/06/09 07:41:52;;;;;;;4.50;4.20;;;;;;;22.89;51.28;99980.34;10276664;28;20053;-56
2023/06/09 07:46:53;;;;;;;6.22;3.92;;;;;;;23.06;50.73;99986.16;10297461;28;20077;-56
2023/06/09 07:51:56;;;;;;;7.75;4.30;;;;;;;23.20;50.94;99979.69;10290028;28;20057;-57
2023/06/09 07:57:02;;;;;;;7.07;4.30;;;;;;;23.42;50.07;99980.25;10303052;28;20515;-58
2023/06/09 08:02:04;;;;;;;5.32;3.88;;;;;;;23.62;50.03;99977.44;10288852;28;20600;-58
2023/06/09 08:07:06;;;;;;;5.05;3.90;;;;;;;23.68;49.29;99970.31;10303425;28;20054;-57
2023/06/09 08:12:08;;;;;;;4.65;4.25;;;;;;;23.80;49.57;99975.91;10305698;28;20049;-56
2023/06/09 08:17:09;;;;;;;3.88;3.42;;;;;;;24.08;48.52;99977.44;10282538;28;20048;-57
2023/06/09 08:22:11;;;;;;;9.23;4.75;;;;;;;24.25;47.03;99967.69;10264678;28;20050;-57
2023/06/09 08:27:13;;;;;;;5.22;3.95;;;;;;;24.25;47.65;99964.97;10302834;28;20735;-58
2023/06/09 08:32:15;;;;;;;4.28;3.88;;;;;;;24.55;46.87;99950.72;10282769;28;20058;-57
2023/06/09 08:37:17;;;;;;;4.17;3.57;;;;;;;24.68;45.85;99945.19;10279733;28;20373;-57
2023/06/09 08:42:23;;;;;;;4.07;3.78;;;;;;;24.85;45.78;99950.88;10293592;28;21040;-57
2023/06/09 08:47:25;;;;;;;4.20;3.65;;;;;;;25.02;45.24;99944.84;10270703;28;20461;-57
2023/06/09 08:52:28;;;;;;;4.30;3.90;;;;;;;25.28;44.84;99938.28;10279200;28;20188;-57
2023/06/09 08:57:30;;;;;;;4.28;3.47;;;;;;;25.33;44.52;99938.44;10288420;28;20155;-58
2023/06/09 09:02:32;;;;;;;4.30;3.90;;;;;;;25.32;44.33;99927.78;10237583;28;1121048;-58
2023/06/09 09:07:34;;;;;;;3.97;3.67;;;;;;;25.45;44.37;99940.41;10269579;28;20150;-57
2023/06/09 09:12:50;;;;;;;3.97;3.57;;;;;;;25.63;44.86;99926.75;10275847;28;20431;-58
2023/06/09 09:17:52;;;;;;;4.78;4.05;;;;;;;25.67;44.27;99925.22;10274080;28;20491;-58
2023/06/09 09:22:53;;;;;;;3.88;3.47;;;;;;;25.85;43.84;99907.13;10278485;28;20053;-57
2023/06/09 09:27:58;;;;;;;8.48;3.60;;;;;;;26.20;41.98;99914.59;10290662;28;20068;-57
2023/06/09 09:33:07;;;;;;;4.05;3.20;;;;;;;26.63;41.83;99910.69;10299860;28;20061;-57
2023/06/09 09:38:16;;;;;;;4.63;4.07;;;;;;;26.76;40.90;99910.47;10277126;28;20056;-57
2023/06/09 09:43:19;;;;;;;4.10;3.80;;;;;;;26.78;41.39;99910.25;10293117;28;20049;-58
2023/06/09 09:48:23;;;;;;;4.07;3.60;;;;;;;26.97;41.07;99900.00;10290929;28;20619;-59
2023/06/09 09:53:26;;;;;;;4.45;3.38;;;;;;;27.13;40.79;99899.25;10296894;28;20077;-58
2023/06/09 09:58:30;;;;;;;3.70;3.40;;;;;;;27.36;41.02;99897.56;10295805;28;20058;-58
2023/06/09 10:03:34;;;;;;;4.03;3.38;;;;;;;27.61;40.45;99899.09;10270354;28;20182;-58
2023/06/09 10:08:39;;;;;;;3.85;3.45;;;;;;;27.86;39.88;99896.00;10274260;28;21702;-58
2023/06/09 10:13:42;;;;;;;3.60;2.83;;;;;;;28.09;37.65;99889.63;10293936;28;20054;-58
2023/06/09 10:18:44;;;;;;;4.25;3.15;;;;;;;28.24;36.51;99890.91;10287929;28;20057;-58
2023/06/09 10:23:47;;;;;;;3.90;3.20;;;;;;;28.29;34.69;99882.81;10293700;28;20068;-58
2023/06/09 10:28:48;;;;;;;3.55;2.97;;;;;;;28.18;35.53;99877.16;10274128;28;20080;-57
2023/06/09 10:33:53;;;;;;;4.90;2.92;;;;;;;28.21;34.01;99887.63;10268053;28;20099;-58
2023/06/09 10:38:55;;;;;;;3.40;3.10;;;;;;;28.28;34.35;99870.19;10294393;28;20080;-59
2023/06/09 10:44:36;;;;;;;5.63;3.00;;;;;;;28.39;33.62;99866.53;10276501;28;20085;-59
2023/06/09 10:49:38;;;;;;;4.22;3.42;;;;;;;28.43;34.20;99864.94;10255821;28;20145;-59
2023/06/09 10:54:41;;;;;;;3.88;3.58;;;;;;;28.62;33.48;99859.22;10292482;28;20042;-59
2023/06/09 10:59:53;;;;;;;;;;;;;;;28.81;32.45;99851.53;10294442;28;20065;-58
2023/06/09 11:04:55;;;;;;;4.05;2.97;;;;;;;28.86;32.72;99857.91;10276060;28;19976;-59
2023/06/09 11:09:59;;;;;;;3.15;2.85;;;;;;;28.87;31.59;99837.66;10274570;28;20053;-59
2023/06/09 11:15:00;;;;;;;3.47;3.17;;;;;;;29.02;31.27;99844.38;10291297;28;20103;-60
2023/06/09 11:20:08;;;;;;;3.92;2.70;;;;;;;29.03;31.48;99841.38;10298203;28;20057;-60
2023/06/09 11:25:17;;;;;;;3.05;2.85;;;;;;;29.19;31.04;99847.06;10283826;28;20921;-59
2023/06/09 11:30:20;;;;;;;3.15;2.85;;;;;;;29.22;32.00;99843.84;10288748;28;20053;-60
2023/06/09 11:35:30;;;;;;;4.38;3.00;;;;;;;29.24;31.81;99834.25;10289558;28;20092;-59
2023/06/09 11:40:33;;;;;;;3.47;3.17;;;;;;;29.42;31.31;99827.59;10295396;28;20595;-59
2023/06/09 11:45:36;;;;;;;3.55;3.25;;;;;;;29.42;31.26;99832.25;10284725;28;20538;-59
2023/06/09 11:50:43;;;;;;;9.60;3.05;;;;;;;29.46;30.30;99814.22;10277145;28;20053;-60
2023/06/09 11:55:47;;;;;;;6.75;3.40;;;;;;;29.60;29.33;99804.47;10302636;28;20108;-59
2023/06/09 12:00:49;;;;;;;6.30;3.50;;;;;;;29.76;28.81;99807.34;10294469;28;20054;-59
2023/06/09 12:05:52;;;;;;;3.20;2.90;;;;;;;29.73;28.69;99803.22;10301491;28;20050;-62
2023/06/09 12:10:53;;;;;;;4.38;2.97;;;;;;;29.78;28.53;99805.16;10288415;28;20973;-60
2023/06/09 12:15:55;;;;;;;4.80;2.72;;;;;;;29.67;27.40;99797.94;10299712;28;20061;-59
2023/06/09 12:21:00;;;;;;;5.38;2.75;;;;;;;29.63;28.44;99811.34;10303994;28;20057;-59
2023/06/09 12:26:05;;;;;;;3.58;2.92;;;;;;;29.59;26.01;99801.97;10282185;28;20159;-58
2023/06/09 12:31:09;;;;;;;2.90;2.70;;;;;;;29.52;26.97;99793.16;10304850;28;20262;-59
2023/06/09 12:36:11;;;;;;;4.45;3.17;;;;;;;29.42;26.10;99778.25;10300858;28;20061;-59
2023/06/09 12:41:14;;;;;;;5.05;3.15;;;;;;;29.37;27.32;99785.63;10298403;28;20070;-59
2023/06/09 12:46:37;;;;;;;3.00;2.70;;;;;;;29.39;26.76;99776.03;10299154;28;20506;-59
2023/06/09 12:51:40;;;;;;;4.38;3.17;;;;;;;29.34;27.90;99772.44;10294508;28;20056;-59
2023/06/09 12:56:44;;;;;;;4.13;3.38;;;;;;;29.36;28.63;99776.56;10289769;28;20057;-59
2023/06/09 13:01:48;;;;;;;7.60;3.30;;;;;;;29.39;27.49;99769.72;10296325;28;20061;-59
2023/06/09 13:06:50;;;;;;;3.47;3.17;;;;;;;29.34;27.63;99764.22;10296628;28;20104;-59
2023/06/09 13:11:51;;;;;;;3.20;2.92;;;;;;;29.29;27.61;99764.16;10285660;28;20050;-60
2023/06/09 13:16:57;;;;;;;3.20;2.78;;;;;;;29.36;26.58;99764.78;10280166;28;20358;-59
2023/06/09 13:21:58;;;;;;;2.90;2.70;;;;;;;29.41;27.52;99767.53;10289930;28;20781;-58
2023/06/09 13:26:59;;;;;;;2.67;2.47;;;;;;;29.43;27.25;99766.22;10297564;28;20084;-57
2023/06/09 13:32:01;;;;;;;4.30;2.90;;;;;;;29.46;27.43;99764.88;10295327;28;20053;-58
2023/06/09 13:37:03;;;;;;;3.30;3.00;;;;;;;29.44;27.30;99756.09;10293446;28;20119;-59
2023/06/09 13:42:05;;;;;;;5.07;3.53;;;;;;;29.41;28.11;99746.47;10301338;28;20867;-60
2023/06/09 13:47:06;;;;;;;3.42;3.10;;;;;;;29.40;27.86;99739.31;10276412;28;20056;-59
2023/06/09 13:52:08;;;;;;;4.03;3.33;;;;;;;29.46;28.17;99734.72;10266543;28;20512;-61
2023/06/09 13:57:09;;;;;;;2.83;2.63;;;;;;;29.39;27.67;99728.63;10294499;28;20151;-59
2023/06/09 14:02:12;;;;;;;4.78;2.70;;;;;;;29.33;27.18;99727.75;10297698;28;20636;-59
2023/06/09 14:07:14;;;;;;;5.85;3.00;;;;;;;29.32;27.91;99719.78;10292414;28;20471;-59
2023/06/09 14:12:15;;;;;;;3.93;3.33;;;;;;;29.31;27.61;99712.66;10300117;28;21561;-60
2023/06/09 14:17:17;;;;;;;3.10;2.80;;;;;;;29.37;27.83;99715.19;10277608;28;20058;-60
2023/06/09 14:22:19;;;;;;;4.30;3.00;;;;;;;29.36;27.70;99727.22;10275393;28;20083;-60
2023/06/09 14:27:21;;;;;;;3.58;3.28;;;;;;;29.34;28.21;99720.38;10281573;28;20139;-60
2023/06/09 14:32:22;;;;;;;4.80;4.20;;;;;;;29.29;30.69;99720.31;10270758;28;20266;-59
2023/06/09 14:37:24;;;;;;;5.33;4.53;;;;;;;29.14;31.23;99729.16;10292391;28;20552;-59
2023/06/09 14:42:25;;;;;;;5.97;4.80;;;;;;;28.99;31.93;99727.09;10294070;28;20057;-59
2023/06/09 14:47:27;;;;;;;5.47;4.60;;;;;;;28.83;31.75;99718.75;10275972;28;20563;-59
2023/06/09 14:52:28;;;;;;;6.45;3.88;;;;;;;28.65;32.08;99717.16;10291667;28;20133;-60
2023/06/09 14:57:30;;;;;;;4.33;3.93;;;;;;;28.52;32.10;99715.59;10268854;28;20160;-59
2023/06/09 15:02:31;;;;;;;5.57;4.05;;;;;;;28.38;32.09;99717.91;10270567;28;20054;-60
2023/06/09 15:07:33;;;;;;;4.10;3.57;;;;;;;28.30;32.68;99723.84;10263780;28;20140;-61
2023/06/09 15:12:36;;;;;;;4.65;3.67;;;;;;;28.29;33.05;99710.41;10286553;28;20053;-60
2023/06/09 15:17:37;;;;;;;5.20;4.20;;;;;;;28.21;33.22;99706.22;10291214;28;20618;-60
2023/06/09 15:22:39;;;;;;;4.83;4.00;;;;;;;28.19;33.86;99714.69;10290129;28;20140;-57
2023/06/09 15:27:40;;;;;;;4.57;4.17;;;;;;;28.17;34.12;99716.81;10287183;28;20103;-57
2023/06/09 15:32:42;;;;;;;4.45;4.03;;;;;;;28.13;33.78;99715.66;10284093;28;20080;-56
2023/06/09 15:37:44;;;;;;;4.13;3.73;;;;;;;28.13;33.77;99710.19;10266958;28;21530;-56
2023/06/09 15:42:48;;;;;;;5.90;4.13;;;;;;;28.14;33.77;99706.38;10271344;28;20070;-56
2023/06/09 15:47:50;;;;;;;7.05;4.28;;;;;;;28.20;33.40;99694.41;10273277;28;20190;-56
2023/06/09 15:52:52;;;;;;;7.78;5.25;;;;;;;28.26;32.98;99695.31;10277301;28;20115;-57
2023/06/09 15:57:53;;;;;;;4.33;3.93;;;;;;;28.21;32.83;99701.56;10288932;28;20177;-56
2023/06/09 16:02:55;;;;;;;4.10;3.70;;;;;;;28.18;32.17;99696.59;10272866;28;20793;-56
2023/06/09 16:07:57;;;;;;;4.07;3.80;;;;;;;28.17;32.58;99691.38;10286917;28;20075;-56
2023/06/09 16:13:00;;;;;;;5.83;4.27;;;;;;;28.16;32.12;99695.19;10299545;28;20894;-56
2023/06/09 16:18:04;;;;;;;6.05;5.20;;;;;;;28.10;32.24;99691.56;10290713;28;20345;-55
2023/06/09 16:23:07;;;;;;;10.45;4.93;;;;;;;28.09;31.51;99687.19;10274953;28;20557;-55
2023/06/09 16:28:11;;;;;;;5.93;4.75;;;;;;;28.07;31.43;99686.59;10290181;28;20668;-56
2023/06/09 16:33:12;;;;;;;6.13;4.50;;;;;;;27.98;30.95;99686.22;10288095;28;20079;-55
2023/06/09 16:38:14;;;;;;;5.60;4.23;;;;;;;27.97;30.72;99694.66;10297669;28;20077;-55
2023/06/09 16:43:15;;;;;;;6.33;4.47;;;;;;;27.94;31.39;99686.91;10291299;28;20501;-55
2023/06/09 16:48:17;;;;;;;5.15;4.68;;;;;;;27.96;32.87;99687.50;10299170;28;20065;-55
2023/06/09 16:53:18;;;;;;;5.30;4.85;;;;;;;27.92;33.40;99680.88;10289077;28;20057;-56
2023/06/09 16:58:20;;;;;;;5.50;4.57;;;;;;;27.96;34.02;99688.34;10275191;28;20053;-56
2023/06/09 17:03:21;;;;;;;5.65;4.80;;;;;;;27.95;34.47;99680.38;10293908;28;20134;-55
2023/06/09 17:08:23;;;;;;;6.40;5.00;;;;;;;27.94;34.02;99689.66;10289388;28;20054;-55
2023/06/09 17:13:24;;;;;;;7.57;5.10;;;;;;;27.92;34.65;99697.28;10296162;28;20485;-56
2023/06/09 17:18:26;;;;;;;7.10;5.30;;;;;;;27.82;34.54;99690.59;10271832;28;20056;-57
2023/06/09 17:23:27;;;;;;;4.95;4.47;;;;;;;27.83;35.13;99697.75;10295456;28;20693;-56
2023/06/09 17:28:29;;;;;;;5.32;4.82;;;;;;;27.75;35.73;99698.16;10254520;28;20061;-55
2023/06/09 17:33:30;;;;;;;7.57;4.45;;;;;;;27.73;35.46;99700.31;10288929;28;20049;-56
2023/06/09 17:38:32;;;;;;;6.60;4.77;;;;;;;27.71;35.62;99707.09;10291718;28;20069;-53
2023/06/09 17:43:34;;;;;;;5.43;5.03;;;;;;;27.61;35.38;99694.09;10291146;28;20088;-55
2023/06/09 17:48:35;;;;;;;5.47;4.90;;;;;;;27.58;35.70;99708.25;10286251;28;20041;-56
2023/06/09 17:53:37;;;;;;;6.28;4.88;;;;;;;27.49;35.90;99700.50;10278855;28;20060;-54
2023/06/09 17:58:39;;;;;;;6.22;5.30;;;;;;;27.43;36.16;99711.56;10291351;28;20094;-55
2023/06/09 18:03:41;;;;;;;5.97;5.17;;;;;;;27.42;36.16;99712.66;10293285;28;20110;-54
2023/06/09 18:08:42;;;;;;;5.68;5.18;;;;;;;27.39;36.63;99716.72;10272430;28;20054;-54
2023/06/09 18:13:44;;;;;;;6.38;5.45;;;;;;;27.36;36.79;99714.47;10289671;28;20208;-56
2023/06/09 18:18:46;;;;;;;5.90;5.37;;;;;;;27.29;36.53;99711.03;10290354;28;20080;-57
2023/06/09 18:23:48;;;;;;;6.53;5.38;;;;;;;27.23;36.63;99717.50;10293577;28;20425;-54
2023/06/09 18:28:49;;;;;;;6.53;4.95;;;;;;;27.20;36.78;99718.81;10280919;28;20064;-55
2023/06/09 18:33:54;;;;;;;5.82;5.18;;;;;;;27.16;37.21;99728.59;10291612;28;20050;-55
2023/06/09 18:38:57;;;;;;;5.55;4.90;;;;;;;27.09;37.66;99717.81;10269646;28;20053;-60
2023/06/09 18:44:10;;;;;;;8.48;5.50;;;;;;;27.07;37.37;99724.56;10292155;28;20105;-62
2023/06/09 18:49:12;;;;;;;5.75;5.25;;;;;;;27.01;37.26;99725.56;10275418;28;20132;-63
2023/06/09 18:54:14;;;;;;;6.13;5.63;;;;;;;26.94;37.43;99725.72;10288897;28;20061;-62
2023/06/09 18:59:15;;;;;;;6.00;5.40;;;;;;;26.83;38.04;99729.31;10290051;28;20765;-62
2023/06/09 19:04:17;;;;;;;6.90;5.50;;;;;;;26.73;38.38;99736.25;10278434;28;20134;-61
2023/06/09 19:09:19;;;;;;;5.97;5.38;;;;;;;26.69;39.14;99740.53;10292731;28;20458;-62
2023/06/09 19:14:20;;;;;;;5.67;5.27;;;;;;;26.57;39.30;99736.97;10269612;28;20061;-61
2023/06/09 19:19:22;;;;;;;6.45;5.90;;;;;;;26.53;39.42;99739.38;10289690;28;20384;-61
2023/06/09 19:24:24;;;;;;;7.47;5.85;;;;;;;26.42;39.30;99742.94;10284438;28;20054;-61
2023/06/09 19:29:29;;;;;;;6.33;5.37;;;;;;;26.35;39.25;99755.91;10266298;28;20215;-62
2023/06/09 19:34:30;;;;;;;6.18;5.28;;;;;;;26.23;39.26;99748.56;10294403;28;20108;-62
2023/06/09 19:39:32;;;;;;;7.10;5.27;;;;;;;26.14;39.26;99752.72;10275526;28;20684;-62
2023/06/09 19:44:34;;;;;;;6.47;5.53;;;;;;;26.04;39.19;99756.03;10288671;28;20292;-62
2023/06/09 19:49:36;;;;;;;5.90;5.30;;;;;;;25.96;39.16;99766.44;10295388;28;20422;-62
2023/06/09 19:54:38;;;;;;;6.40;5.82;;;;;;;25.95;39.21;99790.16;10295240;28;20754;-61
2023/06/09 19:59:40;;;;;;;5.50;5.10;;;;;;;25.80;40.26;99782.44;10284455;28;20061;-62
2023/06/09 20:04:41;;;;;;;7.47;5.50;;;;;;;25.74;40.30;99797.00;10297311;28;20531;-61
2023/06/09 20:09:43;;;;;;;6.45;5.95;;;;;;;25.64;40.87;99796.75;10277639;28;20314;-63
2023/06/09 20:14:46;;;;;;;5.83;5.37;;;;;;;25.56;40.74;99795.19;10279430;28;20137;-62
2023/06/09 20:19:47;;;;;;;6.60;5.75;;;;;;;25.48;41.36;99807.25;10289711;28;20065;-63
2023/06/09 20:24:52;;;;;;;7.07;5.22;;;;;;;25.41;40.91;99812.78;10274416;28;20419;-62
2023/06/09 20:29:53;;;;;;;7.15;6.55;;;;;;;25.34;41.47;99817.53;10291635;28;20061;-62
2023/06/09 20:34:56;;;;;;;5.97;5.47;;;;;;;25.33;41.39;99824.03;10282722;28;20503;-61
2023/06/09 20:39:58;;;;;;;6.75;6.15;;;;;;;25.22;41.64;99824.78;10295931;28;20058;-62
2023/06/09 20:45:02;;;;;;;5.70;5.20;;;;;;;25.22;42.18;99832.94;10297592;28;20395;-62
2023/06/09 20:50:04;;;;;;;6.40;5.80;;;;;;;25.15;41.86;99848.56;10293828;28;20064;-62
2023/06/09 20:55:07;;;;;;;6.97;6.13;;;;;;;25.02;41.89;99846.81;10291646;28;20706;-61
2023/06/09 21:00:11;;;;;;;5.68;5.28;;;;;;;24.93;42.26;99845.47;10293730;28;20042;-62
2023/06/09 21:05:14;;;;;;;6.07;5.57;;;;;;;24.88;42.40;99847.00;10272809;28;20823;-62
2023/06/09 21:10:15;;;;;;;6.65;6.07;;;;;;;24.73;42.20;99854.72;10293876;28;20599;-62
2023/06/09 21:15:17;;;;;;;5.93;5.32;;;;;;;24.73;41.82;99859.34;10293434;28;20126;-64
2023/06/09 21:20:20;;;;;;;5.95;5.38;;;;;;;24.59;41.90;99859.47;10305326;28;20133;-64
2023/06/09 21:25:21;;;;;;;7.78;5.82;;;;;;;24.53;42.20;99855.72;10293624;28;20217;-64
2023/06/09 21:30:23;;;;;;;6.20;5.70;;;;;;;24.49;41.98;99865.38;10312091;28;20117;-64
2023/06/09 21:35:25;;;;;;;7.40;5.00;;;;;;;24.50;41.86;99855.31;10312322;28;20050;-64
2023/06/09 21:40:26;;;;;;;6.20;5.60;;;;;;;24.43;42.22;99860.03;10295670;28;20150;-65
2023/06/09 21:45:28;;;;;;;6.32;5.68;;;;;;;24.30;42.03;99856.34;10286456;28;20084;-64
2023/06/09 21:50:30;;;;;;;6.10;5.27;;;;;;;24.26;42.17;99863.31;10292905;28;20053;-64
2023/06/09 21:55:32;;;;;;;6.45;5.22;;;;;;;24.21;42.43;99865.84;10311405;28;20054;-64
2023/06/09 22:00:34;;;;;;;6.30;5.72;;;;;;;24.21;42.60;99874.00;10297163;28;20084;-64
2023/06/09 22:05:37;;;;;;;7.53;4.93;;;;;;;24.11;42.31;99874.53;10311782;28;20046;-63
2023/06/09 22:10:38;;;;;;;;;;;;;;;24.04;43.01;99878.34;10310296;28;20054;-63
2023/06/09 22:15:40;;;;;;;7.55;6.07;;;;;;;24.00;43.11;99878.81;10293285;28;19948;-64
2023/06/09 22:20:43;;;;;;;5.97;5.47;;;;;;;23.96;43.16;99866.69;10300782;28;20066;-64
2023/06/09 22:25:45;;;;;;;6.10;5.60;;;;;;;23.99;43.25;99881.75;10309511;28;20208;-63
2023/06/09 22:30:47;;;;;;;5.50;5.10;;;;;;;23.94;43.03;99882.38;10299253;28;20062;-64
2023/06/09 22:35:49;;;;;;;5.78;5.28;;;;;;;23.90;42.91;99877.59;10307743;28;20073;-64
2023/06/09 22:40:50;;;;;;;6.28;5.50;;;;;;;23.85;43.98;99872.84;10299158;28;20052;-64
2023/06/09 22:45:52;;;;;;;6.35;5.75;;;;;;;23.82;44.05;99875.97;10308880;28;20058;-63
2023/06/09 22:50:56;;;;;;;6.60;5.95;;;;;;;23.75;43.62;99883.31;10302532;28;20050;-64
2023/06/09 22:55:58;;;;;;;7.35;6.25;;;;;;;23.70;44.48;99883.16;10297841;28;20052;-64
2023/06/09 23:01:00;;;;;;;6.63;5.80;;;;;;;23.67;44.17;99883.59;10310775;28;20084;-64
2023/06/09 23:06:03;;;;;;;7.75;6.07;;;;;;;23.63;44.31;99889.47;10294808;28;20754;-64
2023/06/09 23:11:04;;;;;;;5.93;5.40;;;;;;;23.54;44.27;99885.34;10292428;28;20631;-64
2023/06/09 23:16:08;;;;;;;7.43;5.93;;;;;;;23.47;44.47;99882.66;10299538;28;20177;-61
2023/06/09 23:21:10;;;;;;;6.15;5.65;;;;;;;23.47;44.30;99884.53;10311666;28;20046;-64
2023/06/09 23:26:12;;;;;;;6.07;5.45;;;;;;;23.50;44.88;99884.09;10318052;28;21548;-63
2023/06/09 23:31:14;;;;;;;6.88;6.30;;;;;;;23.29;45.45;99875.22;10292390;28;20050;-63